Terminal Aerodrome Forecast
Issued by NWS Anchorage, AK

Home | Current Version | Previous Version | Text Only | Print | Product List | Glossary On
Versions: 1 2 3 4 5 6 7 8 9 10 11 12 13 14 15 16 17 18 19 20 21 22 23 24 25 26 27 28 29 30 31 32 33 34
000
FTAK31 PANC 241443 AAC
TAFANC
TAF AMD
PANC 241443Z 2415/2518 16008KT P6SM SCT045 OVC060
     FM242000 22007KT P6SM SCT050 OVC070
     FM250000 20007KT P6SM VCSH BKN060
     FM250300 19007KT P6SM -RA SCT025 OVC045
     FM250900 17005KT 3SM RA BKN025=

USA.gov is the U.S. government's official web portal to all federal, state and local government web resources and services.